createdAt,value
2023-01-17T00:01:04.907Z,24.90
2023-01-17T00:04:28.307Z,24.65
2023-01-17T00:07:53.367Z,22.52
2023-01-17T00:10:59.787Z,26.00
2023-01-17T00:14:07.800Z,23.30
2023-01-17T00:17:13.030Z,27.48
2023-01-17T00:20:34.855Z,23.45
2023-01-17T00:23:58.717Z,20.57
2023-01-17T00:27:21.405Z,21.85
2023-01-17T00:30:26.951Z,25.30
2023-01-17T00:33:31.962Z,21.80
2023-01-17T00:36:37.111Z,20.88
2023-01-17T00:39:42.178Z,23.02
2023-01-17T00:42:46.742Z,24.30
2023-01-17T00:46:10.199Z,20.82
2023-01-17T00:49:33.350Z,20.43
2023-01-17T00:52:56.245Z,22.32
2023-01-17T00:56:20.064Z,20.72
2023-01-17T00:59:43.221Z,23.20
2023-01-17T01:03:06.657Z,20.00
2023-01-17T01:06:29.901Z,20.80
2023-01-17T01:09:53.455Z,20.30
2023-01-17T01:13:16.764Z,18.80
2023-01-17T01:16:40.455Z,21.60
2023-01-17T01:20:03.737Z,23.47
2023-01-17T01:23:26.907Z,20.97
2023-01-17T01:26:49.758Z,20.57
2023-01-17T01:30:13.586Z,23.10
2023-01-17T01:33:27.915Z,24.47
2023-01-17T01:36:33.047Z,25.60
2023-01-17T01:39:38.106Z,27.15
2023-01-17T01:42:43.917Z,35.15
2023-01-17T01:45:44.317Z,38.58
2023-01-17T01:49:08.865Z,45.80
2023-01-17T01:52:17.742Z,45.90
2023-01-17T01:55:35.343Z,48.23
2023-01-17T01:58:43.366Z,54.50
2023-01-17T02:01:49.197Z,77.03
2023-01-17T02:04:55.668Z,78.87
2023-01-17T02:08:19.383Z,67.12
2023-01-17T02:11:26.212Z,64.12
2023-01-17T02:14:35.306Z,69.37
2023-01-17T02:18:04.366Z,48.95
2023-01-17T02:21:41.397Z,41.63
2023-01-17T02:25:16.542Z,43.75
2023-01-17T02:29:03.008Z,55.30
2023-01-17T02:32:25.916Z,45.33
2023-01-17T02:35:41.420Z,48.95
2023-01-17T02:39:19.412Z,54.73
2023-01-17T02:42:31.408Z,56.65
2023-01-17T02:45:36.509Z,46.92
2023-01-17T02:48:43.705Z,49.58
2023-01-17T02:52:00.138Z,57.65
2023-01-17T02:55:26.454Z,39.20
2023-01-17T02:58:51.597Z,45.88
2023-01-17T03:02:13.688Z,51.55
2023-01-17T03:05:42.065Z,47.17
2023-01-17T03:08:47.082Z,32.67
2023-01-17T03:11:53.198Z,29.18
2023-01-17T03:14:59.046Z,34.23
2023-01-17T03:18:07.071Z,42.50
2023-01-17T03:21:12.255Z,32.50
2023-01-17T03:24:17.539Z,39.18
2023-01-17T03:27:22.904Z,42.62
2023-01-17T03:30:30.218Z,45.75
2023-01-17T03:33:35.298Z,52.83
2023-01-17T03:36:39.909Z,55.88
2023-01-17T03:39:45.372Z,43.30
2023-01-17T03:42:52.838Z,42.65
2023-01-17T03:46:00.789Z,37.00
2023-01-17T03:49:06.480Z,40.30
2023-01-17T03:52:12.297Z,37.00
2023-01-17T03:55:11.163Z,32.63
2023-01-17T03:58:17.215Z,33.28
2023-01-17T04:01:23.563Z,27.35
2023-01-17T04:04:29.190Z,32.25
2023-01-17T04:07:34.346Z,30.43
2023-01-17T04:10:40.166Z,38.58
2023-01-17T04:13:46.340Z,33.02
2023-01-17T04:16:52.604Z,30.52
2023-01-17T04:19:59.045Z,32.33
2023-01-17T04:23:03.872Z,33.10
2023-01-17T04:26:10.460Z,32.83
2023-01-17T04:29:16.163Z,30.77
2023-01-17T04:32:14.501Z,35.08
2023-01-17T04:35:07.492Z,31.42
2023-01-17T04:38:13.139Z,35.88
2023-01-17T04:41:18.584Z,36.63
2023-01-17T04:44:24.029Z,32.38
2023-01-17T04:47:28.979Z,38.73
2023-01-17T04:50:33.715Z,41.73
2023-01-17T04:53:38.788Z,36.48
2023-01-17T04:56:43.499Z,37.90
2023-01-17T04:59:41.422Z,42.43
2023-01-17T05:02:46.310Z,36.88
2023-01-17T05:05:52.258Z,43.50
2023-01-17T05:08:59.948Z,41.05
2023-01-17T05:12:04.883Z,47.95
2023-01-17T05:15:10.525Z,53.35
2023-01-17T05:18:17.056Z,53.90
2023-01-17T05:21:23.806Z,47.38
2023-01-17T05:24:29.185Z,56.23
2023-01-17T05:27:34.637Z,53.78
2023-01-17T05:30:39.951Z,49.03
2023-01-17T05:33:46.829Z,55.90
2023-01-17T05:36:51.219Z,51.25
2023-01-17T05:39:57.023Z,51.83
2023-01-17T05:43:04.280Z,54.13
2023-01-17T05:46:09.924Z,54.10
2023-01-17T05:49:16.545Z,54.73
2023-01-17T05:52:22.388Z,57.53
2023-01-17T05:55:28.381Z,52.80
2023-01-17T05:58:34.911Z,68.05
2023-01-17T06:01:40.528Z,70.42
2023-01-17T06:04:46.375Z,73.20
2023-01-17T06:07:53.164Z,81.42
2023-01-17T06:11:00.440Z,79.17
2023-01-17T06:14:06.092Z,80.55
2023-01-17T06:17:12.407Z,86.95
2023-01-17T06:20:18.836Z,79.45
2023-01-17T06:23:26.020Z,85.85
2023-01-17T06:26:32.529Z,79.25
2023-01-17T06:29:37.777Z,93.07
2023-01-17T06:32:43.102Z,108.47
2023-01-17T06:35:50.104Z,80.47
2023-01-17T06:38:56.487Z,74.70
2023-01-17T06:42:03.236Z,98.95
2023-01-17T06:45:09.279Z,83.72
2023-01-17T06:48:15.924Z,75.37
2023-01-17T06:51:21.047Z,70.85
2023-01-17T06:54:28.520Z,74.60
2023-01-17T06:57:34.248Z,67.72
2023-01-17T07:00:42.781Z,78.22
2023-01-17T07:03:47.486Z,58.78
2023-01-17T07:06:47.265Z,61.73
2023-01-17T07:09:40.490Z,58.87
2023-01-17T07:12:46.654Z,60.98
2023-01-17T07:15:52.478Z,55.43
2023-01-17T07:19:00.181Z,60.52
2023-01-17T07:22:08.670Z,66.17
2023-01-17T07:25:13.825Z,64.65
2023-01-17T07:28:18.474Z,74.92
2023-01-17T07:31:24.116Z,87.85
2023-01-17T07:34:30.237Z,105.20
2023-01-17T07:37:36.818Z,90.20
2023-01-17T07:40:47.006Z,90.28
2023-01-17T07:43:51.547Z,100.10
2023-01-17T07:46:57.479Z,102.47
2023-01-17T07:50:07.074Z,106.27
2023-01-17T07:53:13.133Z,94.80
2023-01-17T07:56:20.525Z,94.65
2023-01-17T07:59:27.409Z,99.60
2023-01-17T08:02:35.817Z,105.78
2023-01-17T08:05:45.110Z,98.97
2023-01-17T08:08:51.471Z,112.90
2023-01-17T08:11:59.864Z,106.70
2023-01-17T08:15:05.532Z,106.90
2023-01-17T08:18:12.327Z,106.43
2023-01-17T08:21:17.393Z,94.22
2023-01-17T08:24:28.193Z,85.35
2023-01-17T08:27:37.237Z,78.22
2023-01-17T08:30:44.271Z,77.05
2023-01-17T08:33:49.528Z,74.40
2023-01-17T08:36:54.584Z,57.38
2023-01-17T08:40:01.178Z,57.65
2023-01-17T08:43:11.436Z,59.15
2023-01-17T08:46:16.969Z,56.48
2023-01-17T08:49:23.624Z,59.45
2023-01-17T08:52:34.238Z,57.13
2023-01-17T08:55:40.694Z,55.35
2023-01-17T08:58:48.152Z,57.75
2023-01-17T09:01:54.076Z,57.33
2023-01-17T09:04:58.081Z,53.08
2023-01-17T09:08:04.281Z,53.20
2023-01-17T09:11:10.069Z,44.85
2023-01-17T09:14:16.215Z,52.53
2023-01-17T09:17:23.588Z,52.05
2023-01-17T09:20:30.648Z,45.80
2023-01-17T09:23:41.023Z,46.23
2023-01-17T09:26:46.950Z,47.08
2023-01-17T09:29:52.857Z,49.60
2023-01-17T09:33:01.063Z,50.17
2023-01-17T09:36:06.695Z,43.35
2023-01-17T09:39:15.350Z,45.20
2023-01-17T09:42:38.369Z,51.30
2023-01-17T09:45:46.484Z,47.17
2023-01-17T09:48:52.817Z,46.50
2023-01-17T09:51:58.630Z,45.00
2023-01-17T09:55:07.887Z,51.77
2023-01-17T09:58:22.639Z,51.20
2023-01-17T10:01:40.129Z,46.35
2023-01-17T10:05:07.030Z,51.13
2023-01-17T10:08:32.615Z,54.25
2023-01-17T10:11:54.640Z,51.30
2023-01-17T10:15:25.890Z,58.73
2023-01-17T10:18:58.512Z,53.00
2023-01-17T10:22:38.541Z,57.38
2023-01-17T10:25:57.135Z,53.90
2023-01-17T10:29:03.678Z,58.78
2023-01-17T10:32:14.162Z,66.07
2023-01-17T10:35:24.491Z,60.03
2023-01-17T10:38:29.260Z,56.85
2023-01-17T10:41:50.463Z,58.85
2023-01-17T10:45:00.925Z,61.98
2023-01-17T10:48:16.354Z,64.40
2023-01-17T10:51:56.303Z,60.75
2023-01-17T10:55:24.728Z,61.90
2023-01-17T10:58:32.974Z,62.08
2023-01-17T11:01:39.793Z,68.17
2023-01-17T11:04:56.141Z,56.42
2023-01-17T11:08:25.315Z,60.20
2023-01-17T11:11:31.439Z,56.85
2023-01-17T11:14:38.468Z,56.95
2023-01-17T11:17:45.296Z,52.23
2023-01-17T11:20:53.551Z,53.87
2023-01-17T11:24:03.971Z,50.33
2023-01-17T11:27:08.865Z,50.23
2023-01-17T11:30:23.045Z,54.00
2023-01-17T11:33:42.138Z,48.92
2023-01-17T11:36:48.440Z,54.20
2023-01-17T11:40:00.226Z,51.70
2023-01-17T11:43:22.639Z,53.75
2023-01-17T11:46:32.003Z,51.33
2023-01-17T11:49:40.873Z,52.58
2023-01-17T11:52:48.363Z,45.92
2023-01-17T11:55:57.912Z,54.35
2023-01-17T11:59:03.513Z,50.20
2023-01-17T12:02:38.910Z,44.38
2023-01-17T12:06:07.675Z,45.33
2023-01-17T12:09:29.076Z,45.80
2023-01-17T12:13:11.209Z,51.30
2023-01-17T12:16:42.830Z,46.00
2023-01-17T12:20:18.426Z,50.63
2023-01-17T12:24:03.156Z,50.60
2023-01-17T12:27:36.978Z,45.83
2023-01-17T12:31:09.808Z,51.83
2023-01-17T12:34:45.497Z,49.53
2023-01-17T12:38:05.007Z,49.20
2023-01-17T12:41:19.964Z,51.28
2023-01-17T12:44:25.418Z,54.38
2023-01-17T12:47:30.743Z,50.88
2023-01-17T12:50:49.117Z,55.38
2023-01-17T12:54:25.991Z,51.70
2023-01-17T12:57:42.892Z,56.73
2023-01-17T13:00:51.297Z,55.67
2023-01-17T13:04:21.099Z,59.05
2023-01-17T13:07:34.090Z,47.48
2023-01-17T13:10:50.750Z,45.50
2023-01-17T13:13:59.079Z,49.90
2023-01-17T13:17:14.907Z,46.10
2023-01-17T13:20:43.451Z,51.10
2023-01-17T13:24:13.313Z,51.83
2023-01-17T13:27:33.741Z,56.55
2023-01-17T13:31:22.795Z,52.40
2023-01-17T13:35:03.734Z,55.03
2023-01-17T13:38:49.151Z,55.85
2023-01-17T13:42:04.315Z,50.28
2023-01-17T13:45:11.126Z,54.88
2023-01-17T13:48:29.899Z,58.80
2023-01-17T13:51:35.314Z,59.50
2023-01-17T13:54:47.931Z,56.73
2023-01-17T13:57:55.795Z,46.83
2023-01-17T14:01:03.449Z,55.15
2023-01-17T14:04:14.336Z,48.55
2023-01-17T14:07:24.586Z,54.08
2023-01-17T14:10:59.260Z,54.55
2023-01-17T14:14:04.682Z,60.17
2023-01-17T14:17:10.353Z,64.30
2023-01-17T14:20:27.893Z,59.35
2023-01-17T14:23:42.919Z,64.67
2023-01-17T14:26:58.434Z,63.87
2023-01-17T14:30:14.794Z,58.33
2023-01-17T14:33:25.864Z,64.37
2023-01-17T14:36:46.791Z,60.00
2023-01-17T14:40:00.212Z,64.45
2023-01-17T14:43:30.376Z,57.25
2023-01-17T14:46:45.740Z,56.83
2023-01-17T14:49:52.024Z,57.75
2023-01-17T14:52:57.207Z,65.22
2023-01-17T14:56:09.872Z,54.27
2023-01-17T14:59:24.783Z,63.10
2023-01-17T15:02:31.246Z,55.73
2023-01-17T15:05:38.612Z,57.27
2023-01-17T15:08:48.903Z,59.18
2023-01-17T15:11:54.744Z,61.25
2023-01-17T15:15:02.615Z,61.40
2023-01-17T15:18:22.093Z,60.95
2023-01-17T15:21:31.658Z,62.03
2023-01-17T15:24:44.230Z,55.90
2023-01-17T15:27:49.684Z,58.83
2023-01-17T15:31:41.097Z,59.05
2023-01-17T15:34:51.947Z,59.58
2023-01-17T15:37:57.791Z,59.27
2023-01-17T15:41:03.833Z,57.58
2023-01-17T15:44:09.875Z,58.08
2023-01-17T15:47:15.267Z,65.12
2023-01-17T15:50:44.817Z,60.80
2023-01-17T15:53:52.614Z,67.00
2023-01-17T15:56:59.356Z,60.30
2023-01-17T16:00:14.575Z,62.45
2023-01-17T16:03:39.267Z,68.30
2023-01-17T16:06:55.326Z,65.47
2023-01-17T16:10:00.561Z,69.17
2023-01-17T16:13:08.884Z,60.80
2023-01-17T16:16:36.927Z,67.67
2023-01-17T16:19:42.553Z,61.75
2023-01-17T16:22:48.608Z,70.97
2023-01-17T16:25:54.878Z,62.40
2023-01-17T16:28:59.618Z,73.83
2023-01-17T16:32:05.847Z,65.80
2023-01-17T16:35:11.660Z,62.35
2023-01-17T16:38:24.415Z,63.92
2023-01-17T16:41:31.498Z,56.23
2023-01-17T16:44:37.197Z,62.40
2023-01-17T16:47:43.478Z,59.63
2023-01-17T16:50:48.623Z,64.92
2023-01-17T16:53:54.198Z,57.78
2023-01-17T16:56:59.813Z,58.50
2023-01-17T17:00:04.915Z,60.23
2023-01-17T17:03:10.841Z,61.60
2023-01-17T17:06:16.429Z,63.15
2023-01-17T17:09:23.007Z,53.70
2023-01-17T17:12:28.592Z,56.20
2023-01-17T17:15:33.928Z,54.18
2023-01-17T17:18:40.952Z,56.23
2023-01-17T17:21:45.859Z,54.15
2023-01-17T17:24:52.125Z,51.77
2023-01-17T17:27:58.636Z,51.85
2023-01-17T17:31:04.440Z,56.00
2023-01-17T17:34:14.538Z,55.48
2023-01-17T17:37:19.453Z,52.93
2023-01-17T17:40:26.615Z,52.08
2023-01-17T17:43:32.469Z,47.23
2023-01-17T17:46:40.296Z,54.15
2023-01-17T17:49:45.763Z,55.12
2023-01-17T17:52:51.108Z,50.10
2023-01-17T17:55:58.677Z,50.70
2023-01-17T17:59:03.982Z,51.77
2023-01-17T18:02:10.477Z,50.75
2023-01-17T18:05:16.300Z,58.63
2023-01-17T18:08:17.833Z,55.10
2023-01-17T18:11:11.540Z,61.30
2023-01-17T18:14:06.238Z,53.05
2023-01-17T18:16:59.764Z,52.83
2023-01-17T18:20:00.117Z,60.28
2023-01-17T18:22:59.151Z,52.43
2023-01-17T18:26:05.150Z,51.40
2023-01-17T18:29:09.998Z,56.85
2023-01-17T18:32:16.509Z,56.77
2023-01-17T18:35:22.294Z,50.15
2023-01-17T18:38:28.472Z,54.27
2023-01-17T18:41:43.470Z,48.90
2023-01-17T18:44:49.565Z,51.77
2023-01-17T18:47:56.369Z,49.08
2023-01-17T18:51:14.874Z,60.92
2023-01-17T18:54:21.970Z,50.75
2023-01-17T18:57:28.596Z,51.75
2023-01-17T19:00:37.881Z,60.15
2023-01-17T19:03:43.495Z,55.55
2023-01-17T19:06:52.692Z,56.70
2023-01-17T19:09:58.484Z,55.57
2023-01-17T19:13:04.252Z,54.67
2023-01-17T19:16:11.803Z,60.85
2023-01-17T19:19:19.669Z,63.13
2023-01-17T19:22:25.157Z,52.30
2023-01-17T19:25:33.056Z,61.37
2023-01-17T19:28:37.933Z,57.98
2023-01-17T19:31:46.202Z,61.65
2023-01-17T19:34:51.405Z,56.13
2023-01-17T19:38:04.109Z,57.08
2023-01-17T19:41:09.947Z,59.30
2023-01-17T19:44:18.404Z,56.30
2023-01-17T19:47:23.006Z,56.23
2023-01-17T19:50:28.960Z,60.05
2023-01-17T19:53:33.577Z,60.83
2023-01-17T19:56:33.991Z,60.95
2023-01-17T19:59:40.693Z,64.90
2023-01-17T20:02:46.575Z,62.55
2023-01-17T20:05:54.182Z,58.10
2023-01-17T20:09:00.332Z,62.00
2023-01-17T20:12:06.277Z,54.40
2023-01-17T20:15:12.750Z,54.13
2023-01-17T20:18:19.882Z,55.83
2023-01-17T20:21:38.520Z,53.92
2023-01-17T20:24:44.036Z,58.17
2023-01-17T20:27:49.295Z,49.53
2023-01-17T20:30:54.535Z,58.58
2023-01-17T20:34:01.159Z,62.55
2023-01-17T20:37:09.421Z,59.83
2023-01-17T20:40:15.115Z,58.92
2023-01-17T20:43:21.374Z,59.10
2023-01-17T20:46:26.326Z,53.92
2023-01-17T20:49:34.098Z,55.05
2023-01-17T20:52:38.690Z,55.15
2023-01-17T20:55:37.293Z,60.17
2023-01-17T20:58:22.984Z,53.38
2023-01-17T21:01:17.855Z,53.13
2023-01-17T21:04:10.603Z,63.02
2023-01-17T21:07:16.987Z,56.00
2023-01-17T21:10:23.235Z,55.55
2023-01-17T21:13:29.516Z,57.30
2023-01-17T21:16:36.660Z,56.28
2023-01-17T21:19:41.668Z,57.10
2023-01-17T21:22:47.678Z,53.00
2023-01-17T21:25:55.519Z,58.83
2023-01-17T21:29:01.075Z,52.73
2023-01-17T21:32:06.911Z,52.67
2023-01-17T21:35:17.358Z,53.50
2023-01-17T21:38:22.719Z,49.08
2023-01-17T21:41:28.745Z,49.88
2023-01-17T21:44:36.788Z,53.20
2023-01-17T21:47:42.787Z,52.73
2023-01-17T21:50:47.536Z,49.53
2023-01-17T21:53:54.303Z,47.65
2023-01-17T21:57:17.880Z,52.60
2023-01-17T22:00:26.205Z,46.60
2023-01-17T22:03:31.975Z,45.92
2023-01-17T22:06:47.555Z,49.58
2023-01-17T22:09:54.365Z,42.90
2023-01-17T22:13:00.993Z,51.55
2023-01-17T22:16:15.459Z,49.80
2023-01-17T22:19:20.779Z,45.73
2023-01-17T22:22:26.373Z,49.18
2023-01-17T22:25:32.923Z,41.20
2023-01-17T22:28:38.378Z,48.45
2023-01-17T22:31:43.819Z,47.62
2023-01-17T22:34:49.871Z,42.53
2023-01-17T22:37:55.609Z,43.40
2023-01-17T22:41:01.940Z,43.42
2023-01-17T22:44:13.583Z,40.78
2023-01-17T22:47:18.662Z,49.00
2023-01-17T22:50:24.614Z,41.20
2023-01-17T22:53:29.769Z,47.38
2023-01-17T22:56:40.957Z,46.48
2023-01-17T22:59:47.028Z,42.08
2023-01-17T23:02:52.603Z,46.90
2023-01-17T23:05:57.682Z,38.95
2023-01-17T23:09:06.729Z,39.95
2023-01-17T23:12:14.461Z,46.05
2023-01-17T23:15:38.028Z,40.43
2023-01-17T23:19:01.747Z,44.38
2023-01-17T23:22:28.488Z,42.95
2023-01-17T23:25:33.907Z,40.38
2023-01-17T23:28:39.683Z,39.70
2023-01-17T23:31:44.713Z,41.28
2023-01-17T23:34:50.390Z,35.63
2023-01-17T23:38:13.667Z,35.98
2023-01-17T23:41:39.518Z,36.17
2023-01-17T23:44:44.496Z,36.63
2023-01-17T23:47:50.142Z,44.75
2023-01-17T23:51:35.598Z,41.20
2023-01-17T23:54:41.485Z,48.02
2023-01-17T23:57:46.811Z,38.75
